Flight Track Log - Related Links

Times and Time Zones

All times are in EDT time to prevent confusion due to time zone crossing. See the AWI3938 flight status page for this flight to view local times or setup timezone preferences in your user account.

Time Position Orientation Groundspeed Altitude Reporting Facility
EDT Latitude Longitude Course Direction KTS MPH feet Rate Location/Type
Tue 03:25:28 PM 38.8833 -77.0500 330° Northwest 165 190 1,600  Level Potomac TRACON
Tue 03:26:28 PM 38.9167 -77.1167 303° West 239 275 3,300 2,100 Climbing Potomac TRACON
Tue 03:27:28 PM 38.9833 -77.1833 322° Northwest 278 320 5,800 2,300 Climbing Potomac TRACON
Tue 03:28:28 PM 39.0167 -77.2500 303° West 265 305 7,900 1,913 Climbing Potomac TRACON
Tue 03:29:00 PM 39.2673 -77.2522 337° Northwest  Level FlightAware Approximate
Tue 03:30:00 PM 39.3519 -77.2991 337° Northwest  Level FlightAware Approximate
Tue 03:30:08 PM 39.0583 -77.3986 290° West 269 310 10,900  Level Washington Center
Tue 03:31:00 PM 39.4386 -77.3373 330° Northwest  Level FlightAware Approximate
Tue 03:31:09 PM 39.1392 -77.4167 350° North 250 288 12,900  Level Washington Center
Tue 03:32:10 PM 39.2267 -77.4217 357° North 266 306 15,500 2,420 Climbing Washington Center
Tue 03:33:08 PM 39.3100 -77.4264 357° North 289 333 17,700 1,815 Climbing Washington Center
Tue 03:34:09 PM 39.3994 -77.4367 355° North 303 349 19,100 1,509 Climbing Washington Center
Tue 03:35:59 PM 39.5625 -77.4469 357° North 325 374 22,000 1,465 Climbing Cleveland Center
Tue 03:37:01 PM 39.6569 -77.4547 356° North 335 386 23,300 1,210 Climbing Cleveland Center
Tue 03:38:03 PM 39.7539 -77.4569 359° North 346 398 24,500 1,104 Climbing Cleveland Center
Tue 03:39:06 PM 39.8456 -77.4936 343° North 343 395 25,600 720 Climbing Cleveland Center
Tue 03:40:08 PM 39.9606 -77.5342 345° North 354 407 26,000 194 Climbing Cleveland Center
Tue 03:41:10 PM 40.0594 -77.5686 345° North 364 419 26,000  Level Cleveland Center
Tue 03:42:12 PM 40.1583 -77.6053 344° North 366 421 26,000  Level Cleveland Center
Tue 03:43:14 PM 40.2572 -77.6400 345° North 366 421 26,000  Level Cleveland Center
Tue 03:44:16 PM 40.3614 -77.6775 345° North 367 422 26,000  Level Cleveland Center
Tue 03:45:18 PM 40.4606 -77.7139 344° North 370 426 26,000  Level Cleveland Center
Tue 03:46:20 PM 40.5600 -77.7500 345° North 370 426 26,000  Level Cleveland Center
Tue 03:47:22 PM 40.6789 -77.7928 345° North 371 427 26,000  Level Cleveland Center
Tue 03:48:24 PM 40.7778 -77.8292 344° North 371 427 26,000  Level Cleveland Center
Tue 03:49:27 PM 40.8767 -77.8664 344° North 371 427 26,000  Level Cleveland Center
Tue 03:50:29 PM 40.9753 -77.9022 345° North 371 427 26,000  Level Cleveland Center
Tue 03:51:31 PM 41.0939 -77.9458 345° North 371 427 26,000  Level Cleveland Center
Tue 03:52:33 PM 41.1914 -77.9806 345° North 371 427 26,000  Level Cleveland Center
Tue 03:53:35 PM 41.2903 -78.0181 344° North 371 427 26,000  Level Cleveland Center
Tue 03:54:37 PM 41.3875 -78.0550 344° North 371 427 26,000  Level Cleveland Center
Tue 03:55:39 PM 41.5056 -78.0992 344° North 371 427 26,000  Level Cleveland Center
Tue 03:56:41 PM 41.6039 -78.1364 344° North 371 427 26,000  Level Cleveland Center
Tue 03:57:43 PM 41.7031 -78.1736 344° North 371 427 26,000  Level Cleveland Center
Tue 03:58:45 PM 41.8017 -78.2103 345° North 371 427 26,000  Level Cleveland Center
Tue 03:59:48 PM 41.9011 -78.2483 344° North 372 428 26,000  Level Cleveland Center
Tue 04:00:50 PM 42.0197 -78.2939 344° North 372 428 26,000 -435 Level Cleveland Center
Tue 04:01:52 PM 42.1208 -78.3322 344° North 375 432 25,100 -919 Descending Cleveland Center
Tue 04:02:54 PM 42.2197 -78.3719 343° North 375 432 24,100 -968 Descending Cleveland Center
Tue 04:03:56 PM 42.3183 -78.4089 345° North 370 426 23,100 -919 Descending Cleveland Center
Tue 04:04:58 PM 42.4169 -78.4472 344° North 369 425 22,200 -532 Descending Cleveland Center
Tue 04:06:00 PM 42.5136 -78.4847 344° North 364 419 22,000 -97 Descending Cleveland Center
Tue 04:07:02 PM 42.6239 -78.5272 344° North 345 397 22,000 -145 Level Cleveland Center
Tue 04:08:04 PM 42.7125 -78.5622 344° North 336 387 21,700 -672 Descending Cleveland Center
Tue 04:09:07 PM 42.7997 -78.5969 344° North 327 376 20,600 -1,008 Descending Cleveland Center
Tue 04:10:09 PM 42.8858 -78.6308 344° North 323 372 19,600 -968 Descending Cleveland Center
Tue 04:11:11 PM 42.9586 -78.6986 326° Northwest 323 372 18,600 -919 Descending Cleveland Center
Tue 04:12:13 PM 43.0075 -78.7947 305° West 310 357 17,700 -966 Descending Cleveland Center
Tue 04:13:40 PM 43.0833 -78.9333 307° West 290 334 16,200 -1,020 Descending Toronto Center
Tue 04:14:40 PM 43.1167 -79.0000 304° West 280 322 15,200 -1,050 Descending Toronto Center
Tue 04:15:40 PM 43.1667 -79.0833 309° West 290 334 14,100 -1,000 Descending Toronto Center
Tue 04:16:40 PM 43.2167 -79.1833 304° West 290 334 13,200 -950 Descending Toronto Center
Tue 04:17:40 PM 43.2667 -79.2667 310° West 280 322 12,200 -700 Descending Toronto Center
Tue 04:18:40 PM 43.3167 -79.3333 316° Northwest 280 322 11,800 -550 Descending Toronto Center
Tue 04:19:40 PM 43.4000 -79.3833 336° Northwest 290 334 11,100 -1,100 Descending Toronto Center
Tue 04:20:40 PM 43.4667 -79.4000 350° North 280 322 9,600 -1,050 Descending Toronto Center
Tue 04:21:40 PM 43.5333 -79.4500 331° Northwest 280 322 9,000 -450 Descending Toronto Center
Tue 04:22:40 PM 43.5667 -79.5167 305° West 240 276 8,700 -800 Descending Toronto Center
Tue 04:23:40 PM 43.5500 -79.5833 251° West 210 242 7,400 -1,450 Descending Toronto Center
Tue 04:24:40 PM 43.5000 -79.6500 224° Southwest 210 242 5,800 -1,500 Descending Toronto Center
Tue 04:25:40 PM 43.4667 -79.7000 227° Southwest 200 230 4,400 -1,350 Descending Toronto Center
Tue 04:26:40 PM 43.4833 -79.7667 289° West 210 242 3,100 -700 Descending Toronto Center
Tue 04:27:40 PM 43.5333 -79.7667 360° North 190 219 3,000 -50 Descending Toronto Center
Tue 04:28:40 PM 43.5667 -79.7167 47° Northeast 180 207 3,000 -400 Level Toronto Center
Tue 04:29:40 PM 43.6000 -79.6833 36° Northeast 170 196 2,200 -750 Descending Toronto Center
Tue 04:30:40 PM 43.6167 -79.6333 65° Northeast 140 161 1,500 -800 Descending Toronto Center
Tue 04:31:40 PM 43.6500 -79.6167 20° North 140 161 600 -900 Descending Toronto Center

Login

Don't have an account? Register now (free) for customized features, flight alerts, and more!